sensor_id;sensor_type;location;lat;lon;timestamp;P1;durP1;ratioP1;P2;durP2;ratioP2
1014;SDS011;8170;48.118;11.628;2022-09-25T00:00:58;17.98;;;16.27;;
1014;SDS011;8170;48.118;11.628;2022-09-25T00:02:00;20.00;;;18.05;;
1014;SDS011;8170;48.118;11.628;2022-09-25T00:03:03;22.85;;;20.45;;
1014;SDS011;8170;48.118;11.628;2022-09-25T00:04:05;22.70;;;20.42;;
1014;SDS011;8170;48.118;11.628;2022-09-25T00:05:08;22.27;;;19.95;;
1014;SDS011;8170;48.118;11.628;2022-09-25T00:06:11;23.42;;;21.00;;
1014;SDS011;8170;48.118;11.628;2022-09-25T00:07:15;23.13;;;20.80;;
1014;SDS011;8170;48.118;11.628;2022-09-25T00:08:18;23.85;;;21.30;;
1014;SDS011;8170;48.118;11.628;2022-09-25T00:09:23;21.13;;;18.92;;
1014;SDS011;8170;48.118;11.628;2022-09-25T00:10:25;23.52;;;21.13;;
1014;SDS011;8170;48.118;11.628;2022-09-25T00:11:30;22.50;;;20.15;;
1014;SDS011;8170;48.118;11.628;2022-09-25T00:12:33;20.20;;;18.35;;
1014;SDS011;8170;48.118;11.628;2022-09-25T00:13:36;20.40;;;18.50;;
1014;SDS011;8170;48.118;11.628;2022-09-25T00:14:38;21.85;;;19.38;;
1014;SDS011;8170;48.118;11.628;2022-09-25T00:15:44;20.70;;;18.73;;
1014;SDS011;8170;48.118;11.628;2022-09-25T00:16:48;22.08;;;19.98;;
1014;SDS011;8170;48.118;11.628;2022-09-25T00:17:51;18.90;;;17.05;;
1014;SDS011;8170;48.118;11.628;2022-09-25T00:18:53;24.48;;;22.17;;
1014;SDS011;8170;48.118;11.628;2022-09-25T00:20:15;31.27;;;27.98;;
1014;SDS011;8170;48.118;11.628;2022-09-25T00:21:20;27.30;;;24.50;;
1014;SDS011;8170;48.118;11.628;2022-09-25T00:22:23;27.98;;;25.30;;
1014;SDS011;8170;48.118;11.628;2022-09-25T00:23:26;27.85;;;24.95;;
1014;SDS011;8170;48.118;11.628;2022-09-25T00:24:29;24.70;;;22.30;;
1014;SDS011;8170;48.118;11.628;2022-09-25T00:25:33;23.98;;;21.05;;
1014;SDS011;8170;48.118;11.628;2022-09-25T00:26:36;19.08;;;17.27;;
1014;SDS011;8170;48.118;11.628;2022-09-25T00:27:41;21.05;;;19.02;;
1014;SDS011;8170;48.118;11.628;2022-09-25T00:28:43;19.70;;;17.80;;
1014;SDS011;8170;48.118;11.628;2022-09-25T00:29:46;19.67;;;17.77;;
1014;SDS011;8170;48.118;11.628;2022-09-25T00:30:48;22.98;;;20.75;;
1014;SDS011;8170;48.118;11.628;2022-09-25T00:31:53;23.02;;;20.73;;
1014;SDS011;8170;48.118;11.628;2022-09-25T00:32:55;22.90;;;20.70;;
1014;SDS011;8170;48.118;11.628;2022-09-25T00:33:59;21.27;;;19.10;;
1014;SDS011;8170;48.118;11.628;2022-09-25T00:35:03;23.20;;;21.00;;
1014;SDS011;8170;48.118;11.628;2022-09-25T00:36:08;23.90;;;21.40;;
1014;SDS011;8170;48.118;11.628;2022-09-25T00:37:11;21.33;;;19.20;;
1014;SDS011;8170;48.118;11.628;2022-09-25T00:38:14;18.90;;;17.10;;
1014;SDS011;8170;48.118;11.628;2022-09-25T00:39:16;21.45;;;19.27;;
1014;SDS011;8170;48.118;11.628;2022-09-25T00:40:20;20.10;;;18.08;;
1014;SDS011;8170;48.118;11.628;2022-09-25T00:41:25;23.15;;;20.90;;
1014;SDS011;8170;48.118;11.628;2022-09-25T00:42:32;22.23;;;19.85;;
1014;SDS011;8170;48.118;11.628;2022-09-25T00:43:35;20.58;;;18.55;;
1014;SDS011;8170;48.118;11.628;2022-09-25T00:46:01;21.38;;;19.27;;
1014;SDS011;8170;48.118;11.628;2022-09-25T00:47:08;21.02;;;19.00;;
1014;SDS011;8170;48.118;11.628;2022-09-25T00:48:13;20.67;;;18.77;;
1014;SDS011;8170;48.118;11.628;2022-09-25T00:49:18;21.73;;;19.58;;
1014;SDS011;8170;48.118;11.628;2022-09-25T00:50:26;18.85;;;17.05;;
1014;SDS011;8170;48.118;11.628;2022-09-25T00:51:34;18.27;;;16.60;;
1014;SDS011;8170;48.118;11.628;2022-09-25T00:52:41;16.80;;;15.15;;
1014;SDS011;8170;48.118;11.628;2022-09-25T00:53:44;16.33;;;14.88;;
1014;SDS011;8170;48.118;11.628;2022-09-25T00:54:48;14.23;;;12.95;;
1014;SDS011;8170;48.118;11.628;2022-09-25T00:55:55;13.55;;;12.30;;
1014;SDS011;8170;48.118;11.628;2022-09-25T00:57:01;12.77;;;11.60;;
1014;SDS011;8170;48.118;11.628;2022-09-25T00:58:06;12.63;;;11.52;;
1014;SDS011;8170;48.118;11.628;2022-09-25T00:59:10;12.70;;;11.60;;
1014;SDS011;8170;48.118;11.628;2022-09-25T01:00:18;16.05;;;14.57;;
1014;SDS011;8170;48.118;11.628;2022-09-25T01:01:20;13.68;;;12.38;;
1014;SDS011;8170;48.118;11.628;2022-09-25T01:02:24;13.20;;;12.00;;
1014;SDS011;8170;48.118;11.628;2022-09-25T01:03:29;13.10;;;11.85;;
1014;SDS011;8170;48.118;11.628;2022-09-25T01:04:32;13.13;;;11.85;;
1014;SDS011;8170;48.118;11.628;2022-09-25T01:05:39;13.77;;;12.27;;
1014;SDS011;8170;48.118;11.628;2022-09-25T01:06:44;14.95;;;13.63;;
1014;SDS011;8170;48.118;11.628;2022-09-25T01:07:46;12.13;;;11.15;;
1014;SDS011;8170;48.118;11.628;2022-09-25T01:08:51;12.95;;;11.85;;
1014;SDS011;8170;48.118;11.628;2022-09-25T01:09:53;11.70;;;10.60;;
1014;SDS011;8170;48.118;11.628;2022-09-25T01:11:00;11.52;;;10.43;;
1014;SDS011;8170;48.118;11.628;2022-09-25T01:12:03;13.05;;;11.85;;
1014;SDS011;8170;48.118;11.628;2022-09-25T01:13:06;11.73;;;10.73;;
1014;SDS011;8170;48.118;11.628;2022-09-25T01:14:09;10.77;;;9.80;;
1014;SDS011;8170;48.118;11.628;2022-09-25T01:15:18;12.25;;;11.18;;
1014;SDS011;8170;48.118;11.628;2022-09-25T01:16:24;11.25;;;10.25;;
1014;SDS011;8170;48.118;11.628;2022-09-25T01:17:38;12.13;;;10.93;;
1014;SDS011;8170;48.118;11.628;2022-09-25T01:18:50;13.82;;;12.63;;
1014;SDS011;8170;48.118;11.628;2022-09-25T01:20:07;14.20;;;12.98;;
1014;SDS011;8170;48.118;11.628;2022-09-25T01:21:22;11.90;;;10.80;;
1014;SDS011;8170;48.118;11.628;2022-09-25T01:22:35;11.02;;;10.10;;
1014;SDS011;8170;48.118;11.628;2022-09-25T01:24:03;11.73;;;10.63;;
1014;SDS011;8170;48.118;11.628;2022-09-25T01:25:23;12.90;;;11.70;;
1014;SDS011;8170;48.118;11.628;2022-09-25T01:28:42;11.55;;;10.55;;
1014;SDS011;8170;48.118;11.628;2022-09-25T01:30:04;11.75;;;10.65;;
1014;SDS011;8170;48.118;11.628;2022-09-25T01:31:08;12.65;;;11.35;;
1014;SDS011;8170;48.118;11.628;2022-09-25T01:32:19;10.55;;;9.60;;
1014;SDS011;8170;48.118;11.628;2022-09-25T01:33:26;10.57;;;9.68;;
1014;SDS011;8170;48.118;11.628;2022-09-25T01:34:37;10.30;;;9.43;;
1014;SDS011;8170;48.118;11.628;2022-09-25T01:35:46;12.40;;;11.20;;
1014;SDS011;8170;48.118;11.628;2022-09-25T01:36:54;12.80;;;11.50;;
1014;SDS011;8170;48.118;11.628;2022-09-25T01:38:01;12.07;;;10.98;;
1014;SDS011;8170;48.118;11.628;2022-09-25T01:39:17;14.93;;;13.52;;
1014;SDS011;8170;48.118;11.628;2022-09-25T01:40:22;11.63;;;10.52;;
1014;SDS011;8170;48.118;11.628;2022-09-25T01:41:31;10.43;;;9.45;;
1014;SDS011;8170;48.118;11.628;2022-09-25T01:42:41;14.85;;;13.35;;
1014;SDS011;8170;48.118;11.628;2022-09-25T01:43:49;13.43;;;12.27;;
1014;SDS011;8170;48.118;11.628;2022-09-25T01:44:58;10.80;;;9.90;;
1014;SDS011;8170;48.118;11.628;2022-09-25T01:46:07;10.77;;;9.77;;
1014;SDS011;8170;48.118;11.628;2022-09-25T01:47:14;12.20;;;11.07;;
1014;SDS011;8170;48.118;11.628;2022-09-25T01:48:24;11.50;;;10.48;;
1014;SDS011;8170;48.118;11.628;2022-09-25T01:49:29;9.88;;;8.98;;
1014;SDS011;8170;48.118;11.628;2022-09-25T01:50:37;9.75;;;8.85;;
1014;SDS011;8170;48.118;11.628;2022-09-25T01:51:42;9.25;;;8.45;;
1014;SDS011;8170;48.118;11.628;2022-09-25T01:52:50;9.65;;;8.75;;
1014;SDS011;8170;48.118;11.628;2022-09-25T01:53:55;11.90;;;9.57;;
1014;SDS011;8170;48.118;11.628;2022-09-25T01:55:03;10.10;;;9.20;;
1014;SDS011;8170;48.118;11.628;2022-09-25T01:56:11;11.60;;;10.60;;
1014;SDS011;8170;48.118;11.628;2022-09-25T01:57:18;10.70;;;9.70;;
1014;SDS011;8170;48.118;11.628;2022-09-25T01:58:26;12.18;;;10.98;;
1014;SDS011;8170;48.118;11.628;2022-09-25T01:59:34;11.63;;;10.52;;
1014;SDS011;8170;48.118;11.628;2022-09-25T02:00:41;9.02;;;8.23;;
1014;SDS011;8170;48.118;11.628;2022-09-25T02:01:50;10.80;;;9.80;;
1014;SDS011;8170;48.118;11.628;2022-09-25T02:02:54;10.77;;;9.88;;
1014;SDS011;8170;48.118;11.628;2022-09-25T02:04:03;11.30;;;10.35;;
1014;SDS011;8170;48.118;11.628;2022-09-25T02:05:11;10.23;;;9.32;;
1014;SDS011;8170;48.118;11.628;2022-09-25T02:06:18;9.95;;;9.05;;
1014;SDS011;8170;48.118;11.628;2022-09-25T02:07:22;8.85;;;8.00;;
1014;SDS011;8170;48.118;11.628;2022-09-25T02:08:31;11.98;;;10.88;;
1014;SDS011;8170;48.118;11.628;2022-09-25T02:09:38;10.32;;;9.40;;
1014;SDS011;8170;48.118;11.628;2022-09-25T02:10:46;11.82;;;10.73;;
1014;SDS011;8170;48.118;11.628;2022-09-25T02:11:52;9.95;;;9.05;;
1014;SDS011;8170;48.118;11.628;2022-09-25T02:13:01;11.63;;;10.55;;
1014;SDS011;8170;48.118;11.628;2022-09-25T02:14:08;10.07;;;9.27;;
1014;SDS011;8170;48.118;11.628;2022-09-25T02:15:19;10.48;;;9.63;;
1014;SDS011;8170;48.118;11.628;2022-09-25T02:16:26;10.32;;;9.32;;
1014;SDS011;8170;48.118;11.628;2022-09-25T02:17:37;10.82;;;9.90;;
1014;SDS011;8170;48.118;11.628;2022-09-25T02:19:03;12.05;;;11.00;;
1014;SDS011;8170;48.118;11.628;2022-09-25T02:20:25;12.68;;;11.68;;
1014;SDS011;8170;48.118;11.628;2022-09-25T02:21:36;10.13;;;9.13;;
1014;SDS011;8170;48.118;11.628;2022-09-25T02:22:44;10.57;;;9.57;;
1014;SDS011;8170;48.118;11.628;2022-09-25T02:23:51;10.05;;;9.05;;
1014;SDS011;8170;48.118;11.628;2022-09-25T02:24:59;10.65;;;9.75;;
1014;SDS011;8170;48.118;11.628;2022-09-25T02:26:08;9.55;;;8.75;;
1014;SDS011;8170;48.118;11.628;2022-09-25T02:27:15;10.57;;;9.55;;
1014;SDS011;8170;48.118;11.628;2022-09-25T02:28:20;12.25;;;11.13;;
1014;SDS011;8170;48.118;11.628;2022-09-25T02:29:23;12.43;;;11.30;;
1014;SDS011;8170;48.118;11.628;2022-09-25T02:30:27;10.55;;;9.65;;
1014;SDS011;8170;48.118;11.628;2022-09-25T02:31:31;12.77;;;11.57;;
1014;SDS011;8170;48.118;11.628;2022-09-25T02:32:36;11.68;;;10.68;;
1014;SDS011;8170;48.118;11.628;2022-09-25T02:33:39;10.80;;;9.80;;
1014;SDS011;8170;48.118;11.628;2022-09-25T02:34:42;9.00;;;8.20;;
1014;SDS011;8170;48.118;11.628;2022-09-25T02:35:45;9.48;;;8.68;;
1014;SDS011;8170;48.118;11.628;2022-09-25T02:36:47;10.80;;;9.70;;
1014;SDS011;8170;48.118;11.628;2022-09-25T02:37:50;10.98;;;10.00;;
1014;SDS011;8170;48.118;11.628;2022-09-25T02:38:54;11.13;;;10.02;;
1014;SDS011;8170;48.118;11.628;2022-09-25T02:39:58;10.27;;;9.43;;
1014;SDS011;8170;48.118;11.628;2022-09-25T02:41:03;9.70;;;8.80;;
1014;SDS011;8170;48.118;11.628;2022-09-25T02:42:18;11.25;;;10.15;;
1014;SDS011;8170;48.118;11.628;2022-09-25T02:43:35;9.80;;;8.90;;
1014;SDS011;8170;48.118;11.628;2022-09-25T02:44:50;8.73;;;8.02;;
1014;SDS011;8170;48.118;11.628;2022-09-25T02:46:05;9.00;;;8.20;;
1014;SDS011;8170;48.118;11.628;2022-09-25T02:47:19;8.95;;;8.18;;
1014;SDS011;8170;48.118;11.628;2022-09-25T02:48:28;9.25;;;8.45;;
1014;SDS011;8170;48.118;11.628;2022-09-25T02:49:43;11.20;;;10.18;;
1014;SDS011;8170;48.118;11.628;2022-09-25T02:50:51;9.35;;;8.55;;
1014;SDS011;8170;48.118;11.628;2022-09-25T02:52:00;8.68;;;7.88;;
1014;SDS011;8170;48.118;11.628;2022-09-25T02:53:07;9.60;;;8.80;;
1014;SDS011;8170;48.118;11.628;2022-09-25T02:54:13;9.80;;;8.90;;
1014;SDS011;8170;48.118;11.628;2022-09-25T02:55:23;11.55;;;10.52;;
1014;SDS011;8170;48.118;11.628;2022-09-25T02:56:34;8.85;;;8.05;;
1014;SDS011;8170;48.118;11.628;2022-09-25T02:57:43;9.70;;;8.80;;
1014;SDS011;8170;48.118;11.628;2022-09-25T02:58:50;13.75;;;11.73;;
1014;SDS011;8170;48.118;11.628;2022-09-25T02:59:57;13.32;;;12.15;;
1014;SDS011;8170;48.118;11.628;2022-09-25T03:01:07;11.73;;;10.63;;
1014;SDS011;8170;48.118;11.628;2022-09-25T03:02:13;11.82;;;10.45;;
1014;SDS011;8170;48.118;11.628;2022-09-25T03:03:18;10.70;;;9.77;;
1014;SDS011;8170;48.118;11.628;2022-09-25T03:04:23;8.52;;;7.82;;
1014;SDS011;8170;48.118;11.628;2022-09-25T03:05:29;11.25;;;10.15;;
1014;SDS011;8170;48.118;11.628;2022-09-25T03:06:32;11.73;;;10.70;;
1014;SDS011;8170;48.118;11.628;2022-09-25T03:07:35;8.68;;;7.88;;
1014;SDS011;8170;48.118;11.628;2022-09-25T03:08:53;10.25;;;9.23;;
1014;SDS011;8170;48.118;11.628;2022-09-25T03:09:57;10.20;;;9.30;;
1014;SDS011;8170;48.118;11.628;2022-09-25T03:11:01;10.05;;;7.75;;
1014;SDS011;8170;48.118;11.628;2022-09-25T03:12:04;9.15;;;8.30;;
1014;SDS011;8170;48.118;11.628;2022-09-25T03:13:14;9.95;;;9.10;;
1014;SDS011;8170;48.118;11.628;2022-09-25T03:14:17;10.60;;;9.60;;
1014;SDS011;8170;48.118;11.628;2022-09-25T03:15:21;8.43;;;7.65;;
1014;SDS011;8170;48.118;11.628;2022-09-25T03:16:29;8.40;;;7.70;;
1014;SDS011;8170;48.118;11.628;2022-09-25T03:17:35;9.15;;;8.25;;
1014;SDS011;8170;48.118;11.628;2022-09-25T03:18:39;9.50;;;8.63;;
1014;SDS011;8170;48.118;11.628;2022-09-25T03:19:42;9.82;;;8.95;;
1014;SDS011;8170;48.118;11.628;2022-09-25T03:20:45;9.80;;;8.98;;
1014;SDS011;8170;48.118;11.628;2022-09-25T03:21:48;9.90;;;8.90;;
1014;SDS011;8170;48.118;11.628;2022-09-25T03:22:51;9.75;;;8.85;;
1014;SDS011;8170;48.118;11.628;2022-09-25T03:23:54;9.07;;;8.18;;
1014;SDS011;8170;48.118;11.628;2022-09-25T03:24:57;8.18;;;7.38;;
1014;SDS011;8170;48.118;11.628;2022-09-25T03:26:00;10.85;;;9.80;;
1014;SDS011;8170;48.118;11.628;2022-09-25T03:27:04;10.98;;;9.90;;
1014;SDS011;8170;48.118;11.628;2022-09-25T03:28:08;9.80;;;8.82;;
1014;SDS011;8170;48.118;11.628;2022-09-25T03:29:11;8.88;;;8.00;;
1014;SDS011;8170;48.118;11.628;2022-09-25T03:30:15;12.23;;;11.07;;
1014;SDS011;8170;48.118;11.628;2022-09-25T03:31:17;11.15;;;10.05;;
1014;SDS011;8170;48.118;11.628;2022-09-25T03:32:21;9.30;;;8.50;;
1014;SDS011;8170;48.118;11.628;2022-09-25T03:33:23;9.63;;;8.63;;
1014;SDS011;8170;48.118;11.628;2022-09-25T03:34:27;9.93;;;9.02;;
1014;SDS011;8170;48.118;11.628;2022-09-25T03:35:30;8.90;;;8.10;;
1014;SDS011;8170;48.118;11.628;2022-09-25T03:36:33;10.00;;;9.10;;
1014;SDS011;8170;48.118;11.628;2022-09-25T03:37:36;9.55;;;8.65;;
1014;SDS011;8170;48.118;11.628;2022-09-25T03:38:38;10.70;;;9.70;;
1014;SDS011;8170;48.118;11.628;2022-09-25T03:39:42;9.93;;;8.93;;
1014;SDS011;8170;48.118;11.628;2022-09-25T03:40:44;8.40;;;7.70;;
1014;SDS011;8170;48.118;11.628;2022-09-25T03:41:47;9.15;;;8.25;;
1014;SDS011;8170;48.118;11.628;2022-09-25T03:42:50;10.57;;;9.25;;
1014;SDS011;8170;48.118;11.628;2022-09-25T03:43:52;10.23;;;9.18;;
1014;SDS011;8170;48.118;11.628;2022-09-25T03:44:56;11.63;;;10.52;;
1014;SDS011;8170;48.118;11.628;2022-09-25T03:45:58;9.27;;;8.48;;
1014;SDS011;8170;48.118;11.628;2022-09-25T03:47:02;8.65;;;7.85;;
1014;SDS011;8170;48.118;11.628;2022-09-25T03:48:05;9.10;;;8.30;;
1014;SDS011;8170;48.118;11.628;2022-09-25T03:49:08;8.65;;;7.82;;
1014;SDS011;8170;48.118;11.628;2022-09-25T03:50:11;9.68;;;8.80;;
1014;SDS011;8170;48.118;11.628;2022-09-25T03:51:14;9.70;;;8.82;;
1014;SDS011;8170;48.118;11.628;2022-09-25T03:52:16;8.73;;;7.93;;
1014;SDS011;8170;48.118;11.628;2022-09-25T03:53:19;7.65;;;7.03;;
1014;SDS011;8170;48.118;11.628;2022-09-25T03:54:21;8.63;;;7.82;;
1014;SDS011;8170;48.118;11.628;2022-09-25T03:55:24;9.25;;;8.38;;
1014;SDS011;8170;48.118;11.628;2022-09-25T03:56:26;8.65;;;7.82;;
1014;SDS011;8170;48.118;11.628;2022-09-25T03:57:30;8.65;;;7.88;;
1014;SDS011;8170;48.118;11.628;2022-09-25T03:58:32;8.63;;;7.70;;
1014;SDS011;8170;48.118;11.628;2022-09-25T03:59:36;9.00;;;8.10;;
1014;SDS011;8170;48.118;11.628;2022-09-25T04:00:38;9.70;;;8.63;;
1014;SDS011;8170;48.118;11.628;2022-09-25T04:01:41;8.02;;;7.32;;
1014;SDS011;8170;48.118;11.628;2022-09-25T04:02:43;9.05;;;8.15;;
1014;SDS011;8170;48.118;11.628;2022-09-25T04:03:47;10.13;;;9.13;;
1014;SDS011;8170;48.118;11.628;2022-09-25T04:04:50;10.35;;;9.43;;
1014;SDS011;8170;48.118;11.628;2022-09-25T04:05:55;10.43;;;9.32;;
1014;SDS011;8170;48.118;11.628;2022-09-25T04:06:59;10.80;;;9.80;;
1014;SDS011;8170;48.118;11.628;2022-09-25T04:08:02;8.77;;;7.90;;
1014;SDS011;8170;48.118;11.628;2022-09-25T04:09:04;10.52;;;9.48;;
1014;SDS011;8170;48.118;11.628;2022-09-25T04:10:07;11.48;;;9.57;;
1014;SDS011;8170;48.118;11.628;2022-09-25T04:11:10;10.63;;;9.52;;
1014;SDS011;8170;48.118;11.628;2022-09-25T04:12:13;10.15;;;9.25;;
1014;SDS011;8170;48.118;11.628;2022-09-25T04:13:15;9.30;;;8.40;;
1014;SDS011;8170;48.118;11.628;2022-09-25T04:14:18;10.90;;;9.90;;
1014;SDS011;8170;48.118;11.628;2022-09-25T04:15:20;10.07;;;9.07;;
1014;SDS011;8170;48.118;11.628;2022-09-25T04:16:24;9.02;;;8.23;;
1014;SDS011;8170;48.118;11.628;2022-09-25T04:17:28;9.48;;;8.57;;
1014;SDS011;8170;48.118;11.628;2022-09-25T04:18:30;9.02;;;7.75;;
1014;SDS011;8170;48.118;11.628;2022-09-25T04:19:35;8.70;;;7.90;;
1014;SDS011;8170;48.118;11.628;2022-09-25T04:20:37;9.55;;;8.60;;
1014;SDS011;8170;48.118;11.628;2022-09-25T04:21:40;8.45;;;7.50;;
1014;SDS011;8170;48.118;11.628;2022-09-25T04:22:43;9.15;;;8.35;;
1014;SDS011;8170;48.118;11.628;2022-09-25T04:23:45;10.55;;;9.55;;
1014;SDS011;8170;48.118;11.628;2022-09-25T04:25:08;8.82;;;7.93;;
1014;SDS011;8170;48.118;11.628;2022-09-25T04:26:10;8.32;;;7.63;;
1014;SDS011;8170;48.118;11.628;2022-09-25T04:27:13;8.75;;;7.90;;
1014;SDS011;8170;48.118;11.628;2022-09-25T04:28:15;8.70;;;7.90;;
1014;SDS011;8170;48.118;11.628;2022-09-25T04:29:19;8.98;;;8.18;;
1014;SDS011;8170;48.118;11.628;2022-09-25T04:30:24;7.20;;;6.50;;
1014;SDS011;8170;48.118;11.628;2022-09-25T04:31:29;9.13;;;8.30;;
1014;SDS011;8170;48.118;11.628;2022-09-25T04:32:31;11.05;;;9.30;;
1014;SDS011;8170;48.118;11.628;2022-09-25T04:33:51;9.48;;;7.85;;
1014;SDS011;8170;48.118;11.628;2022-09-25T04:34:56;9.73;;;8.77;;
1014;SDS011;8170;48.118;11.628;2022-09-25T04:35:59;8.50;;;7.50;;
1014;SDS011;8170;48.118;11.628;2022-09-25T04:37:02;8.18;;;7.47;;
1014;SDS011;8170;48.118;11.628;2022-09-25T04:38:04;7.65;;;6.97;;
1014;SDS011;8170;48.118;11.628;2022-09-25T04:39:08;8.25;;;7.45;;
1014;SDS011;8170;48.118;11.628;2022-09-25T04:40:10;8.70;;;7.85;;
1014;SDS011;8170;48.118;11.628;2022-09-25T04:41:13;8.55;;;7.75;;
1014;SDS011;8170;48.118;11.628;2022-09-25T04:42:16;9.02;;;8.23;;
1014;SDS011;8170;48.118;11.628;2022-09-25T04:43:26;8.85;;;8.05;;
1014;SDS011;8170;48.118;11.628;2022-09-25T04:44:28;9.75;;;8.85;;
1014;SDS011;8170;48.118;11.628;2022-09-25T04:45:32;8.80;;;7.93;;
1014;SDS011;8170;48.118;11.628;2022-09-25T04:46:35;7.95;;;7.13;;
1014;SDS011;8170;48.118;11.628;2022-09-25T04:47:38;7.30;;;6.70;;
1014;SDS011;8170;48.118;11.628;2022-09-25T04:48:42;7.97;;;7.30;;
1014;SDS011;8170;48.118;11.628;2022-09-25T04:49:46;9.35;;;7.65;;
1014;SDS011;8170;48.118;11.628;2022-09-25T04:50:50;6.88;;;6.22;;
1014;SDS011;8170;48.118;11.628;2022-09-25T04:51:53;6.75;;;6.15;;
1014;SDS011;8170;48.118;11.628;2022-09-25T04:52:57;6.70;;;6.13;;
1014;SDS011;8170;48.118;11.628;2022-09-25T04:54:00;8.55;;;6.72;;
1014;SDS011;8170;48.118;11.628;2022-09-25T04:55:02;7.03;;;6.45;;
1014;SDS011;8170;48.118;11.628;2022-09-25T04:56:06;7.60;;;6.95;;
1014;SDS011;8170;48.118;11.628;2022-09-25T04:57:16;7.30;;;6.70;;
1014;SDS011;8170;48.118;11.628;2022-09-25T04:58:42;7.38;;;6.70;;
1014;SDS011;8170;48.118;11.628;2022-09-25T04:59:46;8.32;;;7.43;;
1014;SDS011;8170;48.118;11.628;2022-09-25T05:00:49;8.43;;;7.70;;
1014;SDS011;8170;48.118;11.628;2022-09-25T05:01:52;7.60;;;6.90;;
1014;SDS011;8170;48.118;11.628;2022-09-25T05:02:54;6.88;;;6.28;;
1014;SDS011;8170;48.118;11.628;2022-09-25T05:03:57;6.75;;;6.15;;
1014;SDS011;8170;48.118;11.628;2022-09-25T05:05:07;6.00;;;5.50;;
1014;SDS011;8170;48.118;11.628;2022-09-25T05:06:10;7.20;;;6.50;;
1014;SDS011;8170;48.118;11.628;2022-09-25T05:07:13;5.97;;;5.47;;
1014;SDS011;8170;48.118;11.628;2022-09-25T05:08:15;6.20;;;5.70;;
1014;SDS011;8170;48.118;11.628;2022-09-25T05:09:18;6.68;;;6.18;;
1014;SDS011;8170;48.118;11.628;2022-09-25T05:10:20;6.85;;;6.18;;
1014;SDS011;8170;48.118;11.628;2022-09-25T05:11:24;6.85;;;6.28;;
1014;SDS011;8170;48.118;11.628;2022-09-25T05:12:26;7.35;;;6.65;;
1014;SDS011;8170;48.118;11.628;2022-09-25T05:13:29;7.47;;;6.78;;
1014;SDS011;8170;48.118;11.628;2022-09-25T05:14:31;5.65;;;5.15;;
1014;SDS011;8170;48.118;11.628;2022-09-25T05:15:35;5.30;;;4.90;;
1014;SDS011;8170;48.118;11.628;2022-09-25T05:16:37;6.20;;;5.60;;
1014;SDS011;8170;48.118;11.628;2022-09-25T05:17:40;5.45;;;4.95;;
1014;SDS011;8170;48.118;11.628;2022-09-25T05:18:42;6.10;;;5.60;;
1014;SDS011;8170;48.118;11.628;2022-09-25T05:19:45;6.97;;;6.35;;
1014;SDS011;8170;48.118;11.628;2022-09-25T05:20:47;8.60;;;7.53;;
1014;SDS011;8170;48.118;11.628;2022-09-25T05:21:51;7.07;;;6.53;;
1014;SDS011;8170;48.118;11.628;2022-09-25T05:22:54;6.05;;;5.55;;
1014;SDS011;8170;48.118;11.628;2022-09-25T05:23:57;6.55;;;5.95;;
1014;SDS011;8170;48.118;11.628;2022-09-25T05:24:59;7.47;;;6.88;;
1014;SDS011;8170;48.118;11.628;2022-09-25T05:26:02;7.50;;;6.90;;
1014;SDS011;8170;48.118;11.628;2022-09-25T05:27:04;7.20;;;6.65;;
1014;SDS011;8170;48.118;11.628;2022-09-25T05:28:08;7.00;;;6.40;;
1014;SDS011;8170;48.118;11.628;2022-09-25T05:29:11;7.10;;;6.40;;
1014;SDS011;8170;48.118;11.628;2022-09-25T05:30:14;7.50;;;6.57;;
1014;SDS011;8170;48.118;11.628;2022-09-25T05:31:16;6.53;;;5.93;;
1014;SDS011;8170;48.118;11.628;2022-09-25T05:32:20;7.47;;;6.88;;
1014;SDS011;8170;48.118;11.628;2022-09-25T05:33:23;8.13;;;7.43;;
1014;SDS011;8170;48.118;11.628;2022-09-25T05:34:26;5.97;;;5.30;;
1014;SDS011;8170;48.118;11.628;2022-09-25T05:35:29;7.95;;;5.88;;
1014;SDS011;8170;48.118;11.628;2022-09-25T05:36:33;7.18;;;5.72;;
1014;SDS011;8170;48.118;11.628;2022-09-25T05:37:36;6.38;;;5.88;;
1014;SDS011;8170;48.118;11.628;2022-09-25T05:38:39;8.43;;;7.63;;
1014;SDS011;8170;48.118;11.628;2022-09-25T05:39:41;9.35;;;8.55;;
1014;SDS011;8170;48.118;11.628;2022-09-25T05:40:44;10.80;;;9.70;;
1014;SDS011;8170;48.118;11.628;2022-09-25T05:41:46;10.02;;;9.02;;
1014;SDS011;8170;48.118;11.628;2022-09-25T05:42:50;8.05;;;7.35;;
1014;SDS011;8170;48.118;11.628;2022-09-25T05:43:52;8.55;;;7.75;;
1014;SDS011;8170;48.118;11.628;2022-09-25T05:44:55;10.00;;;9.20;;
1014;SDS011;8170;48.118;11.628;2022-09-25T05:45:57;10.20;;;9.30;;
1014;SDS011;8170;48.118;11.628;2022-09-25T05:47:01;12.00;;;10.05;;
1014;SDS011;8170;48.118;11.628;2022-09-25T05:48:05;9.63;;;8.75;;
1014;SDS011;8170;48.118;11.628;2022-09-25T05:49:09;9.40;;;8.60;;
1014;SDS011;8170;48.118;11.628;2022-09-25T05:50:11;8.73;;;7.82;;
1014;SDS011;8170;48.118;11.628;2022-09-25T05:51:16;8.65;;;7.95;;
1014;SDS011;8170;48.118;11.628;2022-09-25T05:52:19;6.70;;;6.10;;
1014;SDS011;8170;48.118;11.628;2022-09-25T05:53:22;8.48;;;7.00;;
1014;SDS011;8170;48.118;11.628;2022-09-25T05:54:26;7.55;;;6.85;;
1014;SDS011;8170;48.118;11.628;2022-09-25T05:55:28;6.45;;;5.95;;
1014;SDS011;8170;48.118;11.628;2022-09-25T05:56:32;7.07;;;6.47;;
1014;SDS011;8170;48.118;11.628;2022-09-25T05:57:34;7.18;;;6.57;;
1014;SDS011;8170;48.118;11.628;2022-09-25T05:58:38;8.88;;;7.03;;
1014;SDS011;8170;48.118;11.628;2022-09-25T05:59:40;7.90;;;7.30;;
1014;SDS011;8170;48.118;11.628;2022-09-25T06:00:43;7.38;;;6.68;;
1014;SDS011;8170;48.118;11.628;2022-09-25T06:01:45;6.10;;;5.60;;
1014;SDS011;8170;48.118;11.628;2022-09-25T06:02:50;6.50;;;5.90;;
1014;SDS011;8170;48.118;11.628;2022-09-25T06:03:52;6.55;;;5.95;;
1014;SDS011;8170;48.118;11.628;2022-09-25T06:04:55;6.82;;;6.25;;
1014;SDS011;8170;48.118;11.628;2022-09-25T06:05:57;6.95;;;6.30;;
1014;SDS011;8170;48.118;11.628;2022-09-25T06:07:01;6.65;;;6.05;;
1014;SDS011;8170;48.118;11.628;2022-09-25T06:08:03;5.45;;;4.95;;
1014;SDS011;8170;48.118;11.628;2022-09-25T06:09:07;7.07;;;6.38;;
1014;SDS011;8170;48.118;11.628;2022-09-25T06:10:10;6.13;;;5.57;;
1014;SDS011;8170;48.118;11.628;2022-09-25T06:11:12;6.53;;;5.93;;
1014;SDS011;8170;48.118;11.628;2022-09-25T06:12:15;6.13;;;5.63;;
1014;SDS011;8170;48.118;11.628;2022-09-25T06:13:18;6.78;;;6.25;;
1014;SDS011;8170;48.118;11.628;2022-09-25T06:14:22;8.10;;;7.32;;
1014;SDS011;8170;48.118;11.628;2022-09-25T06:15:24;5.90;;;5.35;;
1014;SDS011;8170;48.118;11.628;2022-09-25T06:16:28;5.68;;;5.18;;
1014;SDS011;8170;48.118;11.628;2022-09-25T06:17:30;6.10;;;5.50;;
1014;SDS011;8170;48.118;11.628;2022-09-25T06:18:33;7.00;;;6.40;;
1014;SDS011;8170;48.118;11.628;2022-09-25T06:19:35;5.68;;;5.18;;
1014;SDS011;8170;48.118;11.628;2022-09-25T06:20:38;6.43;;;5.93;;
1014;SDS011;8170;48.118;11.628;2022-09-25T06:21:40;6.07;;;5.57;;
1014;SDS011;8170;48.118;11.628;2022-09-25T06:22:43;6.28;;;5.68;;
1014;SDS011;8170;48.118;11.628;2022-09-25T06:23:51;6.03;;;5.40;;
1014;SDS011;8170;48.118;11.628;2022-09-25T06:24:55;6.28;;;5.55;;
1014;SDS011;8170;48.118;11.628;2022-09-25T06:26:00;7.10;;;6.50;;
1014;SDS011;8170;48.118;11.628;2022-09-25T06:27:04;6.70;;;6.10;;
1014;SDS011;8170;48.118;11.628;2022-09-25T06:28:07;6.25;;;5.70;;
1014;SDS011;8170;48.118;11.628;2022-09-25T06:29:11;6.63;;;6.13;;
1014;SDS011;8170;48.118;11.628;2022-09-25T06:30:13;5.55;;;5.05;;
1014;SDS011;8170;48.118;11.628;2022-09-25T06:31:16;5.72;;;5.22;;
1014;SDS011;8170;48.118;11.628;2022-09-25T06:32:18;6.63;;;6.10;;
1014;SDS011;8170;48.118;11.628;2022-09-25T06:33:23;6.55;;;5.95;;
1014;SDS011;8170;48.118;11.628;2022-09-25T06:34:25;6.07;;;5.45;;
1014;SDS011;8170;48.118;11.628;2022-09-25T06:35:28;5.50;;;5.05;;
1014;SDS011;8170;48.118;11.628;2022-09-25T06:36:31;6.05;;;5.55;;
1014;SDS011;8170;48.118;11.628;2022-09-25T06:37:34;7.40;;;6.75;;